createdAt,value
2023-03-31T00:01:25.992Z,80.80
2023-03-31T00:08:14.331Z,82.30
2023-03-31T00:10:45.962Z,82.00
2023-03-31T00:13:17.502Z,89.70
2023-03-31T00:15:46.271Z,79.00
2023-03-31T00:18:14.722Z,85.40
2023-03-31T00:20:45.806Z,84.20
2023-03-31T00:23:14.742Z,87.70
2023-03-31T00:25:44.838Z,78.10
2023-03-31T00:28:13.459Z,83.10
2023-03-31T00:30:42.063Z,86.00
2023-03-31T00:33:10.976Z,80.00
2023-03-31T00:35:39.452Z,89.20
2023-03-31T00:38:14.042Z,84.90
2023-03-31T00:40:47.401Z,86.20
2023-03-31T00:43:32.471Z,77.50
2023-03-31T00:46:25.825Z,84.10
2023-03-31T00:48:57.847Z,87.70
2023-03-31T00:51:27.366Z,75.70
2023-03-31T00:54:00.486Z,76.10
2023-03-31T00:56:30.294Z,82.10
2023-03-31T00:59:01.533Z,79.70
2023-03-31T01:01:30.719Z,78.90
2023-03-31T01:03:59.893Z,75.00
2023-03-31T01:06:31.101Z,64.80
2023-03-31T01:08:59.692Z,70.10
2023-03-31T01:11:27.963Z,69.80
2023-03-31T01:13:58.161Z,66.40
2023-03-31T01:16:26.342Z,64.40
2023-03-31T01:18:57.648Z,61.50
2023-03-31T01:22:00.169Z,62.40
2023-03-31T01:24:50.070Z,62.20
2023-03-31T01:27:46.186Z,64.40
2023-03-31T01:30:42.342Z,62.60
2023-03-31T01:33:39.216Z,62.60
2023-03-31T01:36:26.035Z,62.50
2023-03-31T01:39:02.838Z,55.60
2023-03-31T01:42:04.165Z,56.70
2023-03-31T01:44:46.713Z,56.90
2023-03-31T01:47:31.831Z,57.10
2023-03-31T01:50:25.139Z,58.20
2023-03-31T01:52:59.065Z,52.80
2023-03-31T01:55:35.951Z,52.20
2023-03-31T01:58:36.220Z,47.30
2023-03-31T02:01:17.263Z,50.90
2023-03-31T02:03:51.737Z,47.80
2023-03-31T02:06:24.848Z,47.10
2023-03-31T02:09:02.704Z,44.00
2023-03-31T02:11:32.107Z,44.80
2023-03-31T02:14:04.467Z,40.50
2023-03-31T02:16:58.686Z,39.40
2023-03-31T02:19:29.771Z,41.80
2023-03-31T02:21:59.344Z,42.60
2023-03-31T02:24:28.127Z,39.50
2023-03-31T02:27:05.484Z,38.40
2023-03-31T02:29:34.213Z,37.20
2023-03-31T02:32:47.323Z,35.20
2023-03-31T02:35:17.851Z,38.50
2023-03-31T02:37:46.617Z,35.90
2023-03-31T02:40:21.833Z,32.30
2023-03-31T02:42:50.164Z,36.80
2023-03-31T02:45:53.555Z,38.90
2023-03-31T02:48:46.884Z,36.40
2023-03-31T02:51:24.661Z,31.30
2023-03-31T02:53:58.845Z,28.60
2023-03-31T02:56:58.674Z,27.80
2023-03-31T03:00:08.732Z,29.70
2023-03-31T03:03:18.278Z,31.70
2023-03-31T03:06:05.968Z,27.70
2023-03-31T03:08:58.312Z,25.40
2023-03-31T03:14:30.775Z,30.20
2023-03-31T03:17:26.949Z,26.30
2023-03-31T03:19:56.384Z,28.60
2023-03-31T03:22:24.520Z,26.30
2023-03-31T03:24:53.693Z,32.60
2023-03-31T03:27:25.007Z,36.80
2023-03-31T03:29:53.600Z,37.20
2023-03-31T03:32:22.539Z,28.20
2023-03-31T03:34:50.861Z,28.50
2023-03-31T03:37:19.144Z,34.30
2023-03-31T03:39:47.805Z,36.00
2023-03-31T03:42:16.983Z,33.60
2023-03-31T03:44:45.573Z,30.30
2023-03-31T03:47:18.483Z,29.40
2023-03-31T03:49:49.437Z,22.90
2023-03-31T03:52:17.990Z,22.60
2023-03-31T03:54:46.123Z,23.60
2023-03-31T03:57:14.471Z,20.30
2023-03-31T03:59:43.035Z,19.90
2023-03-31T04:02:11.444Z,23.10
2023-03-31T04:04:41.002Z,26.20
2023-03-31T04:07:09.380Z,24.20
2023-03-31T04:09:37.725Z,28.90
2023-03-31T04:12:06.056Z,32.10
2023-03-31T04:14:34.398Z,24.60
2023-03-31T04:17:03.740Z,27.40
2023-03-31T04:19:32.309Z,25.90
2023-03-31T04:22:03.008Z,28.90
2023-03-31T04:24:33.519Z,29.20
2023-03-31T04:27:03.325Z,31.60
2023-03-31T04:29:37.393Z,27.10
2023-03-31T04:32:06.352Z,30.70
2023-03-31T04:34:37.302Z,25.20
2023-03-31T04:37:05.727Z,31.10
2023-03-31T04:39:34.090Z,31.00
2023-03-31T04:42:02.664Z,33.00
2023-03-31T04:44:31.683Z,28.70
2023-03-31T04:47:03.361Z,38.10
2023-03-31T04:49:36.102Z,34.90
2023-03-31T04:52:04.420Z,34.50
2023-03-31T04:54:35.504Z,35.80
2023-03-31T04:57:05.275Z,41.20
2023-03-31T04:59:33.685Z,33.50
2023-03-31T05:02:04.788Z,36.40
2023-03-31T05:04:33.146Z,38.80
2023-03-31T05:07:01.404Z,32.00
2023-03-31T05:09:30.466Z,36.10
2023-03-31T05:12:01.020Z,37.00
2023-03-31T05:14:29.417Z,32.10
2023-03-31T05:17:00.190Z,34.90
2023-03-31T05:21:57.382Z,32.70
2023-03-31T05:24:26.073Z,28.80
2023-03-31T05:26:54.814Z,29.40
2023-03-31T05:29:24.044Z,37.50
2023-03-31T05:31:54.141Z,40.30
2023-03-31T05:34:22.425Z,31.00
2023-03-31T05:36:53.592Z,29.70
2023-03-31T05:39:21.835Z,28.70
2023-03-31T05:41:50.235Z,29.90
2023-03-31T05:44:20.873Z,31.20
2023-03-31T05:46:49.363Z,33.00
2023-03-31T05:49:17.794Z,38.80
2023-03-31T05:51:47.922Z,33.10
2023-03-31T05:54:16.257Z,37.90
2023-03-31T05:56:44.751Z,38.50
2023-03-31T05:59:15.124Z,29.50
2023-03-31T06:01:45.692Z,27.70
2023-03-31T06:04:14.381Z,33.10
2023-03-31T06:06:44.445Z,34.80
2023-03-31T06:09:13.481Z,30.70
2023-03-31T06:11:43.530Z,36.10
2023-03-31T06:14:11.941Z,34.50
2023-03-31T06:16:40.073Z,26.80
2023-03-31T06:19:08.351Z,27.50
2023-03-31T06:21:36.476Z,28.90
2023-03-31T06:24:05.029Z,25.60
2023-03-31T06:26:33.772Z,29.00
2023-03-31T06:29:02.482Z,25.00
2023-03-31T06:31:30.776Z,27.60
2023-03-31T06:33:58.990Z,28.00
2023-03-31T06:36:27.136Z,28.00
2023-03-31T06:38:55.384Z,26.40
2023-03-31T06:41:23.572Z,27.30
2023-03-31T06:43:52.167Z,26.30
2023-03-31T06:46:21.388Z,25.60
2023-03-31T06:48:49.686Z,22.50
2023-03-31T06:51:20.974Z,28.50
2023-03-31T06:53:49.745Z,22.90
2023-03-31T06:56:18.767Z,24.10
2023-03-31T06:58:48.198Z,24.70
2023-03-31T07:01:16.615Z,20.50
2023-03-31T07:03:45.937Z,18.10
2023-03-31T07:06:14.321Z,19.80
2023-03-31T07:08:42.567Z,21.70
2023-03-31T07:11:11.850Z,21.50
2023-03-31T07:13:42.401Z,18.80
2023-03-31T07:16:13.922Z,22.70
2023-03-31T07:18:42.423Z,21.00
2023-03-31T07:21:11.059Z,18.80
2023-03-31T07:23:40.474Z,19.80
2023-03-31T07:26:08.809Z,15.00
2023-03-31T07:28:37.915Z,14.90
2023-03-31T07:31:14.179Z,16.10
2023-03-31T07:33:43.024Z,16.80
2023-03-31T07:36:13.765Z,17.50
2023-03-31T07:38:47.055Z,19.10
2023-03-31T07:41:17.980Z,19.30
2023-03-31T07:43:46.540Z,20.00
2023-03-31T07:46:20.574Z,16.60
2023-03-31T07:48:48.985Z,17.40
2023-03-31T07:51:19.769Z,19.30
2023-03-31T07:53:52.802Z,18.90
2023-03-31T07:56:24.847Z,14.10
2023-03-31T07:58:56.892Z,15.10
2023-03-31T08:01:26.502Z,17.40
2023-03-31T08:03:55.989Z,17.00
2023-03-31T08:06:25.455Z,15.90
2023-03-31T08:08:53.650Z,17.20
2023-03-31T08:11:22.043Z,13.40
2023-03-31T08:13:50.483Z,15.80
2023-03-31T08:16:18.874Z,19.80
2023-03-31T08:18:47.340Z,18.00
2023-03-31T08:21:15.424Z,16.00
2023-03-31T08:23:43.632Z,19.60
2023-03-31T08:26:15.770Z,19.50
2023-03-31T08:28:46.574Z,17.70
2023-03-31T08:31:16.517Z,18.30
2023-03-31T08:33:45.826Z,20.80
2023-03-31T08:36:14.352Z,14.00
2023-03-31T08:38:46.049Z,16.30
2023-03-31T08:41:32.060Z,19.50
2023-03-31T08:44:01.142Z,15.60
2023-03-31T08:46:31.026Z,15.80
2023-03-31T08:48:59.747Z,15.70
2023-03-31T08:54:04.478Z,16.40
2023-03-31T08:56:37.963Z,15.30
2023-03-31T08:59:07.129Z,18.10
2023-03-31T09:01:56.333Z,12.60
2023-03-31T09:05:01.896Z,13.50
2023-03-31T09:07:36.588Z,12.40
2023-03-31T09:10:45.023Z,13.30
2023-03-31T09:13:36.776Z,14.90
2023-03-31T09:16:14.923Z,11.70
2023-03-31T09:18:49.845Z,12.20
2023-03-31T09:21:28.340Z,15.90
2023-03-31T09:24:12.612Z,16.30
2023-03-31T09:26:46.776Z,19.00
2023-03-31T09:29:24.776Z,18.50
2023-03-31T09:31:54.889Z,14.80
2023-03-31T09:34:30.081Z,14.50
2023-03-31T09:36:58.933Z,14.60
2023-03-31T09:39:27.516Z,15.60
2023-03-31T09:41:56.842Z,16.70
2023-03-31T09:44:26.815Z,16.00
2023-03-31T09:46:57.029Z,14.30
2023-03-31T09:49:27.843Z,20.30
2023-03-31T09:52:17.117Z,15.10
2023-03-31T09:54:48.504Z,18.60
2023-03-31T09:57:30.567Z,17.10
2023-03-31T10:00:06.114Z,18.90
2023-03-31T10:02:50.382Z,14.90
2023-03-31T10:05:30.068Z,18.10
2023-03-31T10:08:37.087Z,15.80
2023-03-31T10:11:06.630Z,15.70
2023-03-31T10:14:16.161Z,19.40
2023-03-31T10:16:49.085Z,18.10
2023-03-31T10:19:24.864Z,18.90
2023-03-31T10:22:26.753Z,19.60
2023-03-31T10:24:54.947Z,17.70
2023-03-31T10:27:29.034Z,15.10
2023-03-31T10:30:01.524Z,13.60
2023-03-31T10:32:30.730Z,16.80
2023-03-31T10:35:06.552Z,13.40
2023-03-31T10:37:35.861Z,15.20
2023-03-31T10:40:06.855Z,16.00
2023-03-31T10:42:36.689Z,14.60
2023-03-31T10:45:37.835Z,15.00
2023-03-31T10:48:07.276Z,15.50
2023-03-31T10:50:36.409Z,13.10
2023-03-31T10:53:06.346Z,13.00
2023-03-31T10:55:42.308Z,20.20
2023-03-31T10:58:33.715Z,17.10
2023-03-31T11:01:11.148Z,16.30
2023-03-31T11:03:47.638Z,13.40
2023-03-31T11:06:28.011Z,16.90
2023-03-31T11:09:00.325Z,17.40
2023-03-31T11:11:33.139Z,13.80
2023-03-31T11:14:05.690Z,20.90
2023-03-31T11:17:04.659Z,15.30
2023-03-31T11:19:51.222Z,24.00
2023-03-31T11:22:55.484Z,18.70
2023-03-31T11:25:48.776Z,15.10
2023-03-31T11:28:21.134Z,16.80
2023-03-31T11:30:52.026Z,13.30
2023-03-31T11:33:36.814Z,16.30
2023-03-31T11:36:05.437Z,17.60
2023-03-31T11:38:38.440Z,16.90
2023-03-31T11:41:19.579Z,16.20
2023-03-31T11:43:52.044Z,16.20
2023-03-31T11:46:44.181Z,14.90
2023-03-31T11:49:23.720Z,13.80
2023-03-31T11:52:02.754Z,13.00
2023-03-31T11:54:35.652Z,16.20
2023-03-31T11:57:40.779Z,16.40
2023-03-31T12:00:13.580Z,13.40
2023-03-31T12:02:55.276Z,15.90
2023-03-31T12:05:25.107Z,14.00
2023-03-31T12:08:09.117Z,14.50
2023-03-31T12:10:39.894Z,13.10
2023-03-31T12:13:08.185Z,12.70
2023-03-31T12:15:42.428Z,15.10
2023-03-31T12:18:21.596Z,12.70
2023-03-31T12:20:51.922Z,13.90
2023-03-31T12:23:24.054Z,17.90
2023-03-31T12:26:12.078Z,13.50
2023-03-31T12:28:40.832Z,14.10
2023-03-31T12:31:12.353Z,14.50
2023-03-31T12:33:43.804Z,11.40
2023-03-31T12:36:15.730Z,12.00
2023-03-31T12:39:09.353Z,14.80
2023-03-31T12:41:44.950Z,16.10
2023-03-31T12:44:41.142Z,15.00
2023-03-31T12:47:18.745Z,11.40
2023-03-31T12:49:50.417Z,12.70
2023-03-31T12:52:24.319Z,10.60
2023-03-31T12:55:21.575Z,14.20
2023-03-31T12:57:50.068Z,12.90
2023-03-31T13:00:27.978Z,13.40
2023-03-31T13:03:34.200Z,16.50
2023-03-31T13:06:05.967Z,12.10
2023-03-31T13:08:54.502Z,16.80
2023-03-31T13:11:37.938Z,13.10
2023-03-31T13:14:31.700Z,17.60
2023-03-31T13:17:27.442Z,12.30
2023-03-31T13:19:57.211Z,14.00
2023-03-31T13:22:33.747Z,12.80
2023-03-31T13:25:30.612Z,17.00
2023-03-31T13:28:04.683Z,15.50
2023-03-31T13:30:37.043Z,11.80
2023-03-31T13:33:10.808Z,10.10
2023-03-31T13:35:44.852Z,15.40
2023-03-31T13:38:32.057Z,12.50
2023-03-31T13:41:14.269Z,12.20
2023-03-31T13:43:52.872Z,14.50
2023-03-31T13:46:47.891Z,9.60
2023-03-31T13:49:37.498Z,11.70
2023-03-31T13:52:09.631Z,13.40
2023-03-31T13:54:54.820Z,12.00
2023-03-31T13:57:27.418Z,7.70
2023-03-31T14:00:23.825Z,12.90
2023-03-31T14:03:20.368Z,9.40
2023-03-31T14:06:11.873Z,12.30
2023-03-31T14:08:43.209Z,11.20
2023-03-31T14:11:31.044Z,12.10
2023-03-31T14:14:18.166Z,9.40
2023-03-31T14:16:52.442Z,12.20
2023-03-31T14:19:42.442Z,11.90
2023-03-31T14:22:20.097Z,13.60
2023-03-31T14:25:22.806Z,14.00
2023-03-31T14:27:58.610Z,8.00
2023-03-31T14:30:42.592Z,10.80
2023-03-31T14:33:28.331Z,9.30
2023-03-31T14:36:05.733Z,11.20
2023-03-31T14:38:34.202Z,9.60
2023-03-31T14:41:03.901Z,9.30
2023-03-31T14:43:35.795Z,10.30
2023-03-31T14:46:05.743Z,12.30
2023-03-31T14:48:47.480Z,9.40
2023-03-31T14:51:27.720Z,16.30
2023-03-31T14:54:02.254Z,15.70
2023-03-31T14:56:38.467Z,10.80
2023-03-31T14:59:07.490Z,10.80
2023-03-31T15:01:39.323Z,13.40
2023-03-31T15:04:14.159Z,12.60
2023-03-31T15:06:42.493Z,13.60
2023-03-31T15:09:15.594Z,15.80
2023-03-31T15:11:43.680Z,16.50
2023-03-31T15:14:11.893Z,15.60
2023-03-31T15:16:45.289Z,12.70
2023-03-31T15:19:19.660Z,16.20
2023-03-31T15:21:54.912Z,13.30
2023-03-31T15:24:23.201Z,14.20
2023-03-31T15:27:16.370Z,16.90
2023-03-31T15:29:52.906Z,18.00
2023-03-31T15:32:38.321Z,20.90
2023-03-31T15:35:20.911Z,22.60
2023-03-31T15:37:50.785Z,16.20
2023-03-31T15:40:33.150Z,16.60
2023-03-31T15:43:32.728Z,16.60
2023-03-31T15:46:01.369Z,21.90
2023-03-31T15:48:33.648Z,16.80
2023-03-31T15:51:07.427Z,15.50
2023-03-31T15:53:44.229Z,18.50
2023-03-31T15:56:27.318Z,19.40
2023-03-31T15:59:04.506Z,18.70
2023-03-31T16:01:40.056Z,16.80
2023-03-31T16:04:13.295Z,15.80
2023-03-31T16:06:46.305Z,18.40
2023-03-31T16:09:17.753Z,16.90
2023-03-31T16:11:49.646Z,18.40
2023-03-31T16:14:21.550Z,20.70
2023-03-31T16:16:52.985Z,19.40
2023-03-31T16:19:22.010Z,20.00
2023-03-31T16:21:52.932Z,19.00
2023-03-31T16:24:21.781Z,18.60
2023-03-31T16:26:51.701Z,24.10
2023-03-31T16:29:21.212Z,23.90
2023-03-31T16:31:49.725Z,22.90
2023-03-31T16:34:18.270Z,23.00
2023-03-31T16:36:47.639Z,24.70
2023-03-31T16:39:18.218Z,26.70
2023-03-31T16:41:46.728Z,28.60
2023-03-31T16:44:15.223Z,21.70
2023-03-31T16:46:44.527Z,23.80
2023-03-31T16:49:12.713Z,24.10
2023-03-31T16:51:42.758Z,23.80
2023-03-31T16:54:11.859Z,26.80
2023-03-31T16:59:10.867Z,21.20
2023-03-31T17:01:39.051Z,19.30
2023-03-31T17:04:07.624Z,23.50
2023-03-31T17:06:36.187Z,23.80
2023-03-31T17:09:04.637Z,22.20
2023-03-31T17:11:36.184Z,22.70
2023-03-31T17:14:05.480Z,28.60
2023-03-31T17:16:44.958Z,24.00
2023-03-31T17:19:23.021Z,21.20
2023-03-31T17:21:51.605Z,25.80
2023-03-31T17:24:20.071Z,26.90
2023-03-31T17:26:48.272Z,22.60
2023-03-31T17:29:16.867Z,23.70
2023-03-31T17:31:45.516Z,20.90
2023-03-31T17:34:13.872Z,23.50
2023-03-31T17:36:44.354Z,21.50
2023-03-31T17:39:12.687Z,20.10
2023-03-31T17:41:41.036Z,19.00
2023-03-31T17:44:09.967Z,22.10
2023-03-31T17:46:38.438Z,23.00
2023-03-31T17:49:07.328Z,18.70
2023-03-31T17:51:38.751Z,18.80
2023-03-31T17:54:09.790Z,25.10
2023-03-31T17:56:38.900Z,23.10
2023-03-31T17:59:07.222Z,21.40
2023-03-31T18:01:36.825Z,21.60
2023-03-31T18:04:05.100Z,26.00
2023-03-31T18:06:35.578Z,23.30
2023-03-31T18:09:05.998Z,24.70
2023-03-31T18:11:34.634Z,25.20
2023-03-31T18:14:06.494Z,26.00
2023-03-31T18:16:35.889Z,26.10
2023-03-31T18:19:04.404Z,27.90
2023-03-31T18:21:35.174Z,30.70
2023-03-31T18:24:03.879Z,30.40
2023-03-31T18:26:36.491Z,27.30
2023-03-31T18:29:09.598Z,25.80
2023-03-31T18:31:38.300Z,38.80
2023-03-31T18:34:06.868Z,30.00
2023-03-31T18:36:36.783Z,31.50
2023-03-31T18:39:05.292Z,29.60
2023-03-31T18:41:34.758Z,34.40
2023-03-31T18:44:06.592Z,25.90
2023-03-31T18:46:35.534Z,32.00
2023-03-31T18:49:04.534Z,29.00
2023-03-31T18:51:33.668Z,35.00
2023-03-31T18:54:03.840Z,35.20
2023-03-31T18:56:32.924Z,35.00
2023-03-31T18:59:04.985Z,31.50
2023-03-31T19:01:35.279Z,34.70
2023-03-31T19:04:03.889Z,37.60
2023-03-31T19:06:34.842Z,39.90
2023-03-31T19:09:04.138Z,38.40
2023-03-31T19:11:32.990Z,41.50
2023-03-31T19:14:01.745Z,41.50
2023-03-31T19:16:50.167Z,36.80
2023-03-31T19:19:19.641Z,43.20
2023-03-31T19:21:49.638Z,43.70
2023-03-31T19:24:18.307Z,43.20
2023-03-31T19:29:18.677Z,43.20
2023-03-31T19:31:49.285Z,38.50
2023-03-31T19:34:17.954Z,45.40
2023-03-31T19:36:46.476Z,45.80
2023-03-31T19:39:15.293Z,44.20
2023-03-31T19:41:43.586Z,45.20
2023-03-31T19:44:11.816Z,48.30
2023-03-31T19:49:11.764Z,48.40
2023-03-31T19:51:40.548Z,43.60
2023-03-31T19:54:11.048Z,45.80
2023-03-31T19:56:39.898Z,45.60
2023-03-31T19:59:08.990Z,41.10
2023-03-31T20:01:37.720Z,49.60
2023-03-31T20:04:10.801Z,47.00
2023-03-31T20:06:39.066Z,48.10
2023-03-31T20:09:07.252Z,52.00
2023-03-31T20:11:36.091Z,50.90
2023-03-31T20:14:04.273Z,47.30
2023-03-31T20:16:33.014Z,49.60
2023-03-31T20:19:04.624Z,55.00
2023-03-31T20:21:37.210Z,46.20
2023-03-31T20:24:06.512Z,53.50
2023-03-31T20:26:36.411Z,52.50
2023-03-31T20:29:04.547Z,52.90
2023-03-31T20:31:37.701Z,57.40
2023-03-31T20:36:35.054Z,51.30
2023-03-31T20:39:05.821Z,57.50
2023-03-31T20:41:34.692Z,55.20
2023-03-31T20:44:03.691Z,50.70
2023-03-31T20:46:32.057Z,53.80
2023-03-31T20:49:00.881Z,58.80
2023-03-31T20:51:33.137Z,53.30
2023-03-31T20:54:02.025Z,49.90
2023-03-31T20:56:37.003Z,54.50
2023-03-31T20:59:06.331Z,55.10
2023-03-31T21:01:35.232Z,51.10
2023-03-31T21:04:05.834Z,55.70
2023-03-31T21:06:44.034Z,47.60
2023-03-31T21:09:12.490Z,49.40
2023-03-31T21:11:44.263Z,49.40
2023-03-31T21:14:15.827Z,51.40
2023-03-31T21:19:12.333Z,50.80
2023-03-31T21:21:41.653Z,52.60
2023-03-31T21:24:11.671Z,54.50
2023-03-31T21:26:40.990Z,50.00
2023-03-31T21:31:41.793Z,51.30
2023-03-31T21:34:11.414Z,48.20
2023-03-31T21:36:39.623Z,51.00
2023-03-31T21:39:09.968Z,51.20
2023-03-31T21:41:40.579Z,48.70
2023-03-31T21:44:10.092Z,44.60
2023-03-31T21:46:38.683Z,48.50
2023-03-31T21:49:07.245Z,46.10
2023-03-31T21:51:35.452Z,48.30
2023-03-31T21:54:03.821Z,47.90
2023-03-31T21:56:32.766Z,50.80
2023-03-31T21:59:04.386Z,46.80
2023-03-31T22:01:32.820Z,49.40
2023-03-31T22:04:01.761Z,49.20
2023-03-31T22:06:30.694Z,50.80
2023-03-31T22:08:58.915Z,48.50
2023-03-31T22:11:31.328Z,51.50
2023-03-31T22:13:59.664Z,49.60
2023-03-31T22:16:27.961Z,47.90
2023-03-31T22:18:56.956Z,49.50
2023-03-31T22:21:41.673Z,44.00
2023-03-31T22:24:10.989Z,47.20
2023-03-31T22:26:39.261Z,42.10
2023-03-31T22:29:14.114Z,44.50
2023-03-31T22:31:42.474Z,43.00
2023-03-31T22:34:12.174Z,44.20
2023-03-31T22:36:40.852Z,41.00
2023-03-31T22:39:10.426Z,46.60
2023-03-31T22:41:38.659Z,44.70
2023-03-31T22:44:07.194Z,42.10
2023-03-31T22:46:36.296Z,39.90
2023-03-31T22:49:04.725Z,44.90
2023-03-31T22:51:34.775Z,47.30
2023-03-31T22:54:03.135Z,44.30
2023-03-31T22:56:31.872Z,43.30
2023-03-31T22:59:00.869Z,42.70
2023-03-31T23:01:29.337Z,43.40
2023-03-31T23:03:58.111Z,49.20
2023-03-31T23:06:26.796Z,39.30
2023-03-31T23:08:55.441Z,49.60
2023-03-31T23:11:24.314Z,45.10
2023-03-31T23:13:56.442Z,39.10
2023-03-31T23:16:25.879Z,44.60
2023-03-31T23:18:54.454Z,44.70
2023-03-31T23:21:24.864Z,45.70
2023-03-31T23:23:55.653Z,44.80
2023-03-31T23:26:24.742Z,47.20
2023-03-31T23:28:53.194Z,48.20
2023-03-31T23:31:23.323Z,47.40
2023-03-31T23:33:52.481Z,40.40
2023-03-31T23:36:21.498Z,45.80
2023-03-31T23:38:50.806Z,45.00
2023-03-31T23:41:19.295Z,43.50
2023-03-31T23:43:47.817Z,45.20
2023-03-31T23:46:15.978Z,46.20
2023-03-31T23:48:44.416Z,41.50
2023-03-31T23:51:14.774Z,46.70
2023-03-31T23:53:42.966Z,44.20
2023-03-31T23:56:17.196Z,42.90
2023-03-31T23:58:45.374Z,42.90
